createdAt,value
2018-03-15T00:00:48.451Z,159.50
2018-03-15T00:03:22.966Z,165.17
2018-03-15T00:05:51.931Z,184.10
2018-03-15T00:08:20.892Z,181.13
2018-03-15T00:10:49.789Z,192.27
2018-03-15T00:13:18.747Z,173.87
2018-03-15T00:15:47.664Z,193.97
2018-03-15T00:18:16.559Z,199.87
2018-03-15T00:20:45.488Z,187.50
2018-03-15T00:23:14.450Z,197.03
2018-03-15T00:25:43.375Z,200.40
2018-03-15T00:28:12.286Z,195.33
2018-03-15T00:30:41.218Z,207.93
2018-03-15T00:33:10.124Z,196.20
2018-03-15T00:35:39.066Z,213.77
2018-03-15T00:38:07.994Z,196.00
2018-03-15T00:40:36.973Z,207.07
2018-03-15T00:43:05.923Z,212.33
2018-03-15T00:45:34.831Z,215.90
2018-03-15T00:48:03.743Z,221.97
2018-03-15T00:50:32.711Z,222.30
2018-03-15T00:53:01.673Z,215.00
2018-03-15T00:55:30.575Z,218.57
2018-03-15T00:57:59.547Z,222.73
2018-03-15T01:00:28.443Z,202.13
2018-03-15T01:02:57.342Z,177.53
2018-03-15T01:05:26.275Z,172.60
2018-03-15T01:07:55.210Z,184.60
2018-03-15T01:10:24.154Z,171.57
2018-03-15T01:12:53.054Z,166.77
2018-03-15T01:15:21.955Z,157.73
2018-03-15T01:17:50.882Z,148.10
2018-03-15T01:20:19.779Z,145.90
2018-03-15T01:22:48.674Z,117.53
2018-03-15T01:25:17.629Z,101.17
2018-03-15T01:27:46.522Z,84.87
2018-03-15T01:30:15.418Z,85.10
2018-03-15T01:32:44.339Z,84.70
2018-03-15T01:35:13.354Z,86.00
2018-03-15T01:37:42.293Z,86.00
2018-03-15T01:40:11.195Z,89.77
2018-03-15T01:42:40.112Z,96.67
2018-03-15T01:45:09.011Z,91.03
2018-03-15T01:47:37.951Z,104.53
2018-03-15T01:50:06.860Z,106.43
2018-03-15T01:52:35.750Z,106.37
2018-03-15T01:55:04.674Z,107.63
2018-03-15T01:57:33.583Z,106.40
2018-03-15T02:00:02.514Z,127.77
2018-03-15T02:02:31.416Z,118.07
2018-03-15T02:05:00.370Z,113.33
2018-03-15T02:07:29.263Z,115.00
2018-03-15T02:09:58.150Z,129.20
2018-03-15T02:12:27.071Z,197.30
2018-03-15T02:14:56.000Z,202.63
2018-03-15T02:17:24.936Z,189.53
2018-03-15T02:19:53.831Z,180.00
2018-03-15T02:22:22.755Z,177.03
2018-03-15T02:24:51.655Z,176.47
2018-03-15T02:27:20.579Z,170.30
2018-03-15T02:29:49.509Z,160.03
2018-03-15T02:32:18.411Z,146.57
2018-03-15T02:34:47.334Z,189.33
2018-03-15T02:37:16.258Z,164.63
2018-03-15T02:39:45.289Z,149.93
2018-03-15T02:42:14.186Z,156.97
2018-03-15T02:44:43.090Z,168.03
2018-03-15T02:47:12.029Z,177.87
2018-03-15T02:49:40.934Z,175.10
2018-03-15T02:52:09.877Z,155.07
2018-03-15T02:54:38.847Z,141.27
2018-03-15T02:57:07.749Z,107.13
2018-03-15T02:59:36.647Z,97.37
2018-03-15T03:02:05.555Z,83.97
2018-03-15T03:04:34.521Z,79.73
2018-03-15T03:07:03.431Z,83.40
2018-03-15T03:09:32.334Z,83.37
2018-03-15T03:12:01.288Z,81.47
2018-03-15T03:14:30.184Z,81.17
2018-03-15T03:16:59.076Z,79.40
2018-03-15T03:19:27.991Z,75.43
2018-03-15T03:21:56.886Z,81.47
2018-03-15T03:24:25.851Z,88.60
2018-03-15T03:26:54.750Z,78.63
2018-03-15T03:29:23.640Z,72.80
2018-03-15T03:31:52.571Z,78.03
2018-03-15T03:34:21.498Z,73.90
2018-03-15T03:36:50.403Z,75.90
2018-03-15T03:39:19.383Z,79.93
2018-03-15T03:41:48.285Z,84.47
2018-03-15T03:44:17.187Z,77.73
2018-03-15T03:46:46.115Z,76.80
2018-03-15T03:49:15.043Z,74.07
2018-03-15T03:51:43.963Z,73.23
2018-03-15T03:54:12.872Z,75.50
2018-03-15T03:56:41.828Z,74.40
2018-03-15T03:59:10.724Z,73.83
2018-03-15T04:01:39.635Z,72.10
2018-03-15T04:04:08.574Z,77.43
2018-03-15T04:06:37.468Z,72.33
2018-03-15T04:09:06.407Z,77.43
2018-03-15T04:11:35.302Z,82.73
2018-03-15T04:14:04.241Z,76.57
2018-03-15T04:16:33.153Z,75.77
2018-03-15T04:19:02.049Z,72.17
2018-03-15T04:21:30.967Z,73.27
2018-03-15T04:23:59.862Z,76.57
2018-03-15T04:26:28.819Z,71.43
2018-03-15T04:28:57.714Z,73.67
2018-03-15T04:31:26.629Z,77.63
2018-03-15T04:33:55.590Z,75.07
2018-03-15T04:36:24.484Z,77.47
2018-03-15T04:38:53.390Z,77.67
2018-03-15T04:41:22.305Z,67.37
2018-03-15T04:43:51.202Z,78.03
2018-03-15T04:46:20.160Z,73.50
2018-03-15T04:48:49.109Z,71.97
2018-03-15T04:51:18.035Z,73.13
2018-03-15T04:53:46.939Z,77.77
2018-03-15T04:56:15.830Z,70.43
2018-03-15T04:58:44.786Z,71.57
2018-03-15T05:01:13.692Z,76.60
2018-03-15T05:03:42.618Z,78.13
2018-03-15T05:06:11.591Z,84.17
2018-03-15T05:08:40.484Z,71.13
2018-03-15T05:11:09.388Z,72.93
2018-03-15T05:13:38.285Z,76.97
2018-03-15T05:16:07.254Z,84.80
2018-03-15T05:18:36.150Z,83.90
2018-03-15T05:21:05.060Z,84.07
2018-03-15T05:23:33.982Z,78.27
2018-03-15T05:26:02.925Z,80.97
2018-03-15T05:28:31.815Z,76.57
2018-03-15T05:31:00.907Z,75.53
2018-03-15T05:33:29.804Z,74.13
2018-03-15T05:35:58.735Z,75.67
2018-03-15T05:38:27.668Z,77.30
2018-03-15T05:40:56.575Z,73.53
2018-03-15T05:43:25.468Z,73.53
2018-03-15T05:45:54.384Z,83.97
2018-03-15T05:48:23.312Z,76.00
2018-03-15T05:50:52.239Z,81.23
2018-03-15T05:53:21.147Z,80.63
2018-03-15T05:55:50.054Z,79.20
2018-03-15T05:58:19.055Z,85.10
2018-03-15T06:00:47.951Z,86.53
2018-03-15T06:03:16.880Z,82.50
2018-03-15T06:05:45.771Z,81.70
2018-03-15T06:08:14.658Z,83.93
2018-03-15T06:10:43.589Z,80.93
2018-03-15T06:13:12.491Z,77.67
2018-03-15T06:15:41.470Z,88.43
2018-03-15T06:18:10.399Z,83.63
2018-03-15T06:20:39.303Z,91.10
2018-03-15T06:23:08.231Z,80.17
2018-03-15T06:25:37.123Z,89.43
2018-03-15T06:28:06.059Z,86.20
2018-03-15T06:30:34.999Z,89.60
2018-03-15T06:33:03.903Z,83.27
2018-03-15T06:35:32.831Z,85.60
2018-03-15T06:38:01.736Z,86.87
2018-03-15T06:40:30.691Z,95.67
2018-03-15T06:42:59.586Z,85.70
2018-03-15T06:45:28.486Z,78.77
2018-03-15T06:47:57.427Z,86.67
2018-03-15T06:50:26.366Z,85.40
2018-03-15T06:52:55.314Z,84.87
2018-03-15T06:55:24.214Z,75.40
2018-03-15T06:57:53.720Z,75.97
2018-03-15T07:00:22.654Z,71.93
2018-03-15T07:02:51.559Z,152.27
2018-03-15T07:05:20.471Z,92.33
2018-03-15T07:07:49.410Z,76.07
2018-03-15T07:10:18.306Z,70.87
2018-03-15T07:12:47.228Z,71.30
2018-03-15T07:15:16.123Z,75.77
2018-03-15T07:17:45.038Z,69.47
2018-03-15T07:20:13.967Z,113.03
2018-03-15T07:22:42.912Z,74.50
2018-03-15T07:25:11.820Z,77.53
2018-03-15T07:27:40.718Z,73.33
2018-03-15T07:30:09.643Z,86.03
2018-03-15T07:32:38.543Z,79.47
2018-03-15T07:35:07.479Z,79.17
2018-03-15T07:37:36.382Z,77.30
2018-03-15T07:40:05.307Z,93.17
2018-03-15T07:42:34.227Z,69.83
2018-03-15T07:45:03.126Z,79.47
2018-03-15T07:47:32.060Z,78.27
2018-03-15T07:50:00.954Z,77.50
2018-03-15T07:52:29.886Z,70.77
2018-03-15T07:54:58.790Z,68.87
2018-03-15T07:57:27.682Z,63.50
2018-03-15T07:59:56.655Z,58.57
2018-03-15T08:02:25.554Z,57.77
2018-03-15T08:04:54.455Z,75.57
2018-03-15T08:07:23.387Z,55.03
2018-03-15T08:09:52.286Z,55.70
2018-03-15T08:12:21.221Z,53.87
2018-03-15T08:14:50.159Z,54.70
2018-03-15T08:17:19.063Z,57.87
2018-03-15T08:19:47.998Z,61.10
2018-03-15T08:22:16.914Z,59.40
2018-03-15T08:24:45.826Z,57.67
2018-03-15T08:27:14.747Z,73.67
2018-03-15T08:29:43.686Z,137.63
2018-03-15T08:32:12.591Z,56.63
2018-03-15T08:34:41.494Z,59.40
2018-03-15T08:37:10.427Z,53.50
2018-03-15T08:39:39.336Z,51.77
2018-03-15T08:42:08.260Z,55.57
2018-03-15T08:44:37.214Z,47.37
2018-03-15T08:47:06.119Z,49.40
2018-03-15T08:49:35.023Z,46.90
2018-03-15T08:52:03.983Z,51.57
2018-03-15T08:54:32.883Z,41.20
2018-03-15T08:57:01.780Z,32.43
2018-03-15T08:59:30.741Z,36.67
2018-03-15T09:01:59.642Z,32.03
2018-03-15T09:04:28.540Z,48.73
2018-03-15T09:06:57.517Z,30.93
2018-03-15T09:09:26.480Z,35.03
2018-03-15T09:11:55.406Z,54.90
2018-03-15T09:14:24.342Z,39.63
2018-03-15T09:16:53.250Z,34.33
2018-03-15T09:19:22.183Z,30.83
2018-03-15T09:21:51.096Z,29.07
2018-03-15T09:24:20.049Z,32.07
2018-03-15T09:26:48.941Z,33.70
2018-03-15T09:29:17.840Z,44.33
2018-03-15T09:31:46.758Z,31.97
2018-03-15T09:34:15.680Z,33.50
2018-03-15T09:36:44.622Z,31.27
2018-03-15T09:39:13.519Z,31.73
2018-03-15T09:41:42.491Z,34.03
2018-03-15T09:44:11.391Z,38.03
2018-03-15T09:46:40.334Z,32.40
2018-03-15T09:49:09.391Z,33.60
2018-03-15T09:51:38.305Z,39.77
2018-03-15T09:54:07.247Z,32.00
2018-03-15T09:56:36.157Z,32.23
2018-03-15T09:59:05.116Z,30.67
2018-03-15T10:01:34.062Z,31.83
2018-03-15T10:04:03.007Z,29.47
2018-03-15T10:06:31.912Z,33.03
2018-03-15T10:09:00.861Z,22.10
2018-03-15T10:11:29.781Z,13.13
2018-03-15T10:13:58.685Z,16.03
2018-03-15T10:16:27.664Z,17.47
2018-03-15T10:18:56.547Z,16.27
2018-03-15T10:21:25.455Z,11.57
2018-03-15T10:23:54.371Z,18.03
2018-03-15T10:26:23.283Z,14.93
2018-03-15T10:28:52.213Z,12.43
2018-03-15T10:31:21.122Z,12.83
2018-03-15T10:33:50.098Z,12.57
2018-03-15T10:36:19.028Z,11.00
2018-03-15T10:38:47.955Z,9.80
2018-03-15T10:41:16.895Z,12.17
2018-03-15T10:43:45.830Z,13.60
2018-03-15T10:46:14.756Z,19.17
2018-03-15T10:48:43.723Z,17.80
2018-03-15T10:51:12.662Z,29.93
2018-03-15T10:53:41.601Z,20.70
2018-03-15T10:56:10.547Z,19.23
2018-03-15T10:58:39.499Z,17.13
2018-03-15T11:01:08.435Z,18.63
2018-03-15T11:03:43.158Z,19.47
2018-03-15T11:06:12.083Z,21.53
2018-03-15T11:08:41.023Z,25.97
2018-03-15T11:11:10.915Z,21.93
2018-03-15T11:13:39.861Z,17.53
2018-03-15T11:16:08.806Z,21.07
2018-03-15T11:18:37.762Z,16.57
2018-03-15T11:21:06.702Z,15.73
2018-03-15T11:23:35.614Z,13.70
2018-03-15T11:26:04.543Z,17.90
2018-03-15T11:28:33.464Z,17.10
2018-03-15T11:31:02.419Z,18.60
2018-03-15T11:33:31.362Z,13.23
2018-03-15T11:36:00.308Z,18.93
2018-03-15T11:38:29.216Z,16.13
2018-03-15T11:40:58.161Z,13.77
2018-03-15T11:43:27.077Z,14.57
2018-03-15T11:45:55.993Z,18.30
2018-03-15T11:48:24.950Z,16.83
2018-03-15T11:50:53.866Z,13.17
2018-03-15T11:53:22.782Z,15.33
2018-03-15T11:55:51.731Z,16.07
2018-03-15T11:58:20.683Z,18.17
2018-03-15T12:00:49.623Z,12.23
2018-03-15T12:03:18.571Z,11.63
2018-03-15T12:05:47.511Z,16.07
2018-03-15T12:08:16.454Z,11.47
2018-03-15T12:10:45.403Z,17.30
2018-03-15T12:13:14.338Z,17.17
2018-03-15T12:15:43.284Z,19.87
2018-03-15T12:18:12.227Z,19.27
2018-03-15T12:20:41.130Z,36.97
2018-03-15T12:23:10.115Z,22.23
2018-03-15T12:25:39.038Z,17.90
2018-03-15T12:28:07.968Z,16.33
2018-03-15T12:30:36.949Z,16.37
2018-03-15T12:33:05.883Z,18.33
2018-03-15T12:35:34.792Z,21.00
2018-03-15T12:38:03.722Z,23.13
2018-03-15T12:40:32.657Z,15.93
2018-03-15T12:43:01.582Z,19.40
2018-03-15T12:45:30.543Z,17.17
2018-03-15T12:47:59.476Z,20.00
2018-03-15T12:50:28.395Z,19.67
2018-03-15T12:52:57.376Z,18.87
2018-03-15T12:55:26.681Z,24.80
2018-03-15T12:57:55.579Z,29.00
2018-03-15T13:00:24.586Z,14.47
2018-03-15T13:02:53.577Z,17.30
2018-03-15T13:05:22.500Z,17.87
2018-03-15T13:07:51.448Z,16.97
2018-03-15T13:10:20.391Z,22.43
2018-03-15T13:12:49.381Z,23.73
2018-03-15T13:15:18.324Z,24.70
2018-03-15T13:17:47.252Z,25.23
2018-03-15T13:20:16.191Z,20.13
2018-03-15T13:22:45.115Z,29.03
2018-03-15T13:25:14.031Z,29.03
2018-03-15T13:27:42.982Z,29.13
2018-03-15T13:30:11.949Z,42.30
2018-03-15T13:32:40.834Z,43.70
2018-03-15T13:35:09.775Z,43.13
2018-03-15T13:37:38.774Z,38.30
2018-03-15T13:40:07.789Z,40.77
2018-03-15T13:42:36.732Z,37.70
2018-03-15T13:45:05.638Z,41.47
2018-03-15T13:47:34.807Z,44.73
2018-03-15T13:50:03.760Z,34.60
2018-03-15T13:52:32.724Z,36.53
2018-03-15T13:55:01.648Z,35.73
2018-03-15T13:57:30.587Z,34.30
2018-03-15T13:59:59.597Z,34.87
2018-03-15T14:02:28.516Z,36.53
2018-03-15T14:04:57.410Z,37.30
2018-03-15T14:07:26.342Z,35.63
2018-03-15T14:09:55.253Z,35.33
2018-03-15T14:12:24.231Z,30.03
2018-03-15T14:14:53.136Z,34.37
2018-03-15T14:17:22.029Z,29.73
2018-03-15T14:19:50.993Z,36.50
2018-03-15T14:22:19.916Z,33.07
2018-03-15T14:24:48.818Z,32.33
2018-03-15T14:27:17.777Z,34.40
2018-03-15T14:29:46.737Z,34.37
2018-03-15T14:32:15.791Z,60.30
2018-03-15T14:34:44.724Z,37.40
2018-03-15T14:37:13.636Z,33.03
2018-03-15T14:39:42.579Z,35.90
2018-03-15T14:42:11.538Z,32.97
2018-03-15T14:44:40.426Z,36.43
2018-03-15T14:47:09.314Z,44.27
2018-03-15T14:49:38.265Z,54.73
2018-03-15T14:52:07.155Z,39.07
2018-03-15T14:54:36.046Z,34.20
2018-03-15T14:57:04.985Z,30.03
2018-03-15T14:59:33.883Z,33.40
2018-03-15T15:02:02.829Z,38.27
2018-03-15T15:04:31.735Z,36.77
2018-03-15T15:07:00.775Z,35.13
2018-03-15T15:09:29.674Z,37.07
2018-03-15T15:11:58.593Z,41.53
2018-03-15T15:14:27.551Z,35.63
2018-03-15T15:16:56.435Z,41.70
2018-03-15T15:19:25.378Z,35.83
2018-03-15T15:21:54.285Z,114.10
2018-03-15T15:24:23.189Z,40.93
2018-03-15T15:26:52.149Z,34.80
2018-03-15T15:29:21.056Z,33.30
2018-03-15T15:31:50.680Z,36.43
2018-03-15T15:34:19.604Z,33.80
2018-03-15T15:36:48.494Z,38.73
2018-03-15T15:39:17.456Z,35.80
2018-03-15T15:41:46.348Z,38.63
2018-03-15T15:44:15.245Z,40.20
2018-03-15T15:46:44.191Z,44.47
2018-03-15T15:49:13.162Z,39.47
2018-03-15T15:51:42.036Z,77.60
2018-03-15T15:54:10.964Z,43.00
2018-03-15T15:56:39.859Z,46.80
2018-03-15T15:59:08.802Z,39.57
2018-03-15T16:01:37.699Z,38.57
2018-03-15T16:04:06.596Z,40.70
2018-03-15T16:06:35.513Z,37.83
2018-03-15T16:09:04.419Z,37.57
2018-03-15T16:11:33.364Z,45.63
2018-03-15T16:14:02.251Z,35.33
2018-03-15T16:16:31.159Z,41.83
2018-03-15T16:19:00.100Z,38.60
2018-03-15T16:21:29.069Z,36.23
2018-03-15T16:23:57.967Z,35.77
2018-03-15T16:26:26.859Z,39.60
2018-03-15T16:28:55.799Z,39.57
2018-03-15T16:31:24.690Z,40.40
2018-03-15T16:33:53.586Z,40.37
2018-03-15T16:36:22.522Z,42.30
2018-03-15T16:38:51.428Z,44.13
2018-03-15T16:41:20.369Z,43.77
2018-03-15T16:43:49.270Z,40.37
2018-03-15T16:46:18.179Z,43.73
2018-03-15T16:48:47.132Z,44.23
2018-03-15T16:51:16.044Z,51.37
2018-03-15T16:53:44.959Z,49.80
2018-03-15T16:56:13.944Z,53.00
2018-03-15T16:58:42.856Z,53.87
2018-03-15T17:01:11.788Z,50.83
2018-03-15T17:03:40.679Z,59.60
2018-03-15T17:06:09.579Z,59.17
2018-03-15T17:08:38.510Z,59.93
2018-03-15T17:11:07.415Z,63.00
2018-03-15T17:13:36.372Z,59.73
2018-03-15T17:16:05.288Z,67.90
2018-03-15T17:18:34.200Z,69.03
2018-03-15T17:21:03.149Z,85.07
2018-03-15T17:23:32.104Z,108.73
2018-03-15T17:26:01.013Z,117.87
2018-03-15T17:28:29.903Z,80.80
2018-03-15T17:30:58.919Z,67.67
2018-03-15T17:33:27.836Z,93.67
2018-03-15T17:35:56.808Z,80.13
2018-03-15T17:38:25.743Z,72.50
2018-03-15T17:40:54.654Z,81.77
2018-03-15T17:43:23.575Z,80.83
2018-03-15T17:45:52.483Z,76.33
2018-03-15T17:48:21.419Z,76.93
2018-03-15T17:50:50.311Z,83.60
2018-03-15T17:53:19.333Z,77.87
2018-03-15T17:55:48.227Z,74.63
2018-03-15T17:58:17.127Z,83.43
2018-03-15T18:00:46.083Z,80.00
2018-03-15T18:03:15.042Z,83.57
2018-03-15T18:05:44.004Z,86.67
2018-03-15T18:08:12.972Z,87.60
2018-03-15T18:10:41.868Z,92.13
2018-03-15T18:13:10.800Z,114.80
2018-03-15T18:15:39.758Z,106.27
2018-03-15T18:18:08.678Z,107.63
2018-03-15T18:20:37.582Z,95.73
2018-03-15T18:23:06.539Z,94.10
2018-03-15T18:25:35.482Z,89.07
2018-03-15T18:28:04.378Z,81.87
2018-03-15T18:30:33.380Z,79.53
2018-03-15T18:33:02.339Z,91.23
2018-03-15T18:35:31.316Z,84.50
2018-03-15T18:38:00.227Z,80.13
2018-03-15T18:40:29.130Z,90.00
2018-03-15T18:42:58.164Z,89.53
2018-03-15T18:45:27.065Z,87.43
2018-03-15T18:47:55.963Z,83.67
2018-03-15T18:50:24.911Z,89.43
2018-03-15T18:52:53.807Z,82.77
2018-03-15T18:55:22.781Z,86.53
2018-03-15T18:57:51.708Z,82.83
2018-03-15T19:00:20.670Z,77.43
2018-03-15T19:02:49.578Z,80.73
2018-03-15T19:05:18.484Z,82.47
2018-03-15T19:07:47.420Z,78.53
2018-03-15T19:10:16.342Z,86.40
2018-03-15T19:12:45.284Z,93.30
2018-03-15T19:15:14.213Z,85.30
2018-03-15T19:17:43.120Z,83.53
2018-03-15T19:20:12.097Z,89.50
2018-03-15T19:22:41.031Z,94.03
2018-03-15T19:25:09.984Z,81.77
2018-03-15T19:27:38.907Z,74.50
2018-03-15T19:30:07.859Z,74.70
2018-03-15T19:32:36.820Z,75.07
2018-03-15T19:35:05.744Z,76.93
2018-03-15T19:37:34.686Z,79.57
2018-03-15T19:40:03.636Z,85.40
2018-03-15T19:42:32.547Z,88.80
2018-03-15T19:45:01.480Z,103.20
2018-03-15T19:47:30.410Z,84.20
2018-03-15T19:49:59.327Z,72.40
2018-03-15T19:52:28.292Z,69.60
2018-03-15T19:54:57.238Z,74.40
2018-03-15T19:57:26.162Z,72.57
2018-03-15T19:59:55.067Z,73.47
2018-03-15T20:02:24.036Z,64.83
2018-03-15T20:04:52.932Z,73.07
2018-03-15T20:07:21.869Z,72.73
2018-03-15T20:09:50.804Z,70.23
2018-03-15T20:12:19.766Z,75.53
2018-03-15T20:14:48.660Z,71.37
2018-03-15T20:17:17.576Z,80.73
2018-03-15T20:19:46.540Z,85.00
2018-03-15T20:22:15.443Z,80.30
2018-03-15T20:24:44.374Z,79.67
2018-03-15T20:27:13.415Z,77.77
2018-03-15T20:29:42.236Z,79.90
2018-03-15T20:32:11.163Z,79.03
2018-03-15T20:34:40.068Z,79.30
2018-03-15T20:37:09.058Z,83.07
2018-03-15T20:39:43.651Z,87.67
2018-03-15T20:42:12.587Z,85.33
2018-03-15T20:44:41.497Z,86.07
2018-03-15T20:47:16.084Z,95.13
2018-03-15T20:49:44.984Z,86.80
2018-03-15T20:52:13.899Z,86.83
2018-03-15T20:54:42.837Z,83.03
2018-03-15T20:57:11.735Z,89.40
2018-03-15T20:59:40.708Z,75.23
2018-03-15T21:02:09.632Z,90.77
2018-03-15T21:04:39.449Z,85.77
2018-03-15T21:07:08.420Z,88.10
2018-03-15T21:09:37.336Z,88.47
2018-03-15T21:12:06.243Z,92.17
2018-03-15T21:14:35.173Z,85.70
2018-03-15T21:17:04.067Z,97.90
2018-03-15T21:19:33.004Z,88.20
2018-03-15T21:22:01.908Z,92.30
2018-03-15T21:24:30.824Z,96.40
2018-03-15T21:26:59.794Z,94.67
2018-03-15T21:29:28.678Z,94.57
2018-03-15T21:31:57.618Z,89.80
2018-03-15T21:34:26.519Z,96.87
2018-03-15T21:36:55.411Z,90.73
2018-03-15T21:39:24.335Z,90.00
2018-03-15T21:41:53.336Z,95.07
2018-03-15T21:44:22.253Z,87.83
2018-03-15T21:46:51.198Z,93.07
2018-03-15T21:49:20.140Z,85.47
2018-03-15T21:51:49.110Z,91.93
2018-03-15T21:54:18.045Z,89.07
2018-03-15T21:56:46.992Z,94.57
2018-03-15T21:59:16.010Z,88.10
2018-03-15T22:01:44.936Z,95.63
2018-03-15T22:04:13.945Z,96.17
2018-03-15T22:06:42.862Z,97.73
2018-03-15T22:09:11.991Z,98.47
2018-03-15T22:11:40.990Z,106.47
2018-03-15T22:14:09.892Z,91.37
2018-03-15T22:16:38.793Z,96.90
2018-03-15T22:19:07.754Z,97.20
2018-03-15T22:21:36.685Z,89.73
2018-03-15T22:24:05.626Z,93.20
2018-03-15T22:26:34.571Z,93.03
2018-03-15T22:29:03.520Z,105.50
2018-03-15T22:31:32.440Z,98.43
2018-03-15T22:34:01.423Z,92.50
2018-03-15T22:36:30.325Z,99.33
2018-03-15T22:38:59.215Z,97.60
2018-03-15T22:41:28.180Z,96.67
2018-03-15T22:43:57.088Z,95.40
2018-03-15T22:46:26.001Z,104.87
2018-03-15T22:48:54.943Z,97.87
2018-03-15T22:51:23.880Z,102.13
2018-03-15T22:53:52.820Z,97.60
2018-03-15T22:56:21.766Z,102.73
2018-03-15T22:58:50.720Z,102.17
2018-03-15T23:01:19.629Z,100.30
2018-03-15T23:03:48.779Z,97.10
2018-03-15T23:06:17.706Z,105.27
2018-03-15T23:08:46.616Z,110.97
2018-03-15T23:11:15.579Z,105.43
2018-03-15T23:13:44.535Z,108.20
2018-03-15T23:16:13.594Z,109.07
2018-03-15T23:18:42.428Z,100.60
2018-03-15T23:21:11.411Z,107.07
2018-03-15T23:23:40.353Z,102.20
2018-03-15T23:26:09.262Z,97.07
2018-03-15T23:28:38.280Z,108.67
2018-03-15T23:31:07.210Z,107.07
2018-03-15T23:33:36.148Z,101.90
2018-03-15T23:36:05.048Z,101.90
2018-03-15T23:38:34.016Z,106.50
2018-03-15T23:41:03.039Z,97.47
2018-03-15T23:43:31.955Z,105.13
2018-03-15T23:46:00.897Z,106.57
2018-03-15T23:48:29.790Z,109.47
2018-03-15T23:50:58.697Z,111.83
2018-03-15T23:53:27.652Z,108.93
2018-03-15T23:55:56.556Z,108.37
2018-03-15T23:58:25.506Z,114.17
